Aviation Digital Data Service (ADDS)

Output produced by METARs form (1008 UTC 19 January 2019)
found at http://www.aviationweather.gov/metar/data/
 
KABR 190953Z AUTO 36004KT 10SM CLR M25/M28 A3047 RMK AO2 SLP358 T12501278 $
KABR 190527Z 1906/2006 VRB05KT P6SM SKC 
     FM190900 VRB05KT P6SM OVC100
       
KBKX 190956Z AUTO 35005KT 10SM CLR M24/M27 A3036 RMK AO2 SLP345 T12391267 FZRANO
K9V9 190955Z AUTO 01004KT 10SM CLR M19/M22 A3041 RMK AO2 T11941223
KCUT 190953Z AUTO 10SM OVC038 M05/M08 A3006 RMK AO2 SLP233 T10501078
KD07 190956Z AUTO 17010KT M17/M18 A3028 RMK AO1 SLP324 T11721178
KHON 190955Z AUTO 35010KT 10SM CLR M24/M27 A3045 RMK AO2 SLP348 T12391272
KHON 190522Z 1906/2006 36008KT P6SM -SN OVC040 
     FM190800 36006KT P6SM BKN100 
     FM191200 35006KT P6SM SCT140 
     FM192300 VRB03KT P6SM BKN200
       
KMDS 190955Z AUTO 02008KT 10SM M23/M24 A3034 RMK AO2
KMHE 190953Z AUTO 34008KT 10SM CLR M21/M24 A3044 RMK AO2 SLP342 T12061244
KMBG 190952Z AUTO 00000KT 10SM OVC100 M23/M26 A3037 RMK AO2 SLP333 T12281256
KMBG 190527Z 1906/2006 VRB05KT P6SM SKC 
     FM190800 VRB05KT P6SM OVC100 
     FM192100 13009KT P6SM OVC100
       
KPHP 190955Z AUTO 08004KT 10SM CLR M21/M22 A3035 RMK AO2 SLP328 I1000 T12061217
KPIR 190953Z AUTO 00000KT 10SM CLR M23/M26 A3041 RMK AO2 SLP346 T12331256
KPIR 190527Z 1906/2006 04007KT P6SM OVC080 
     FM190800 VRB05KT P6SM SKC 
     FM191200 VRB05KT P6SM OVC100 
     FM192100 11009KT P6SM OVC100
       
KIEN 190952Z AUTO 00000KT 10SM OVC022 M10/M12 A3024 RMK AO2 SLP297 T11001122
KRAP 191000Z AUTO 13005KT 10SM SCT018 OVC060 M12/M14 A3022 RMK AO2 T11221144
KRAP 190522Z 1906/2006 15005KT P6SM SCT009 OVC020 
     TEMPO 1906/1910 -SN BKN009 
     FM191500 VRB04KT P6SM BKN050
       
KFSD 190956Z AUTO 35008KT 10SM OVC090 M18/M22 A3035 RMK AO2 SLP315 T11781217 $
KFSD 190522Z 1906/2006 02012KT P6SM -SN SCT040 OVC070 
     FM190900 01009KT P6SM BKN100 
     FM191200 36008KT P6SM SCT160 
     FM200300 VRB03KT P6SM BKN220
       
K8D3 190956Z AUTO 32009KT M26/M28 A3046 RMK AO1 SLP375 T12611283
KSPF 190955Z AUTO 00000KT 7SM OVC065 M09/M10 A3015 RMK AO2 PWINO
KATY 190953Z AUTO 34007KT 10SM CLR M26/M29 A3036 RMK AO2 SLP336 T12611289 $
KATY 190527Z 1906/2006 02010KT P6SM OVC090 
     FM190800 VRB05KT P6SM SKC 
     FM191200 VRB05KT P6SM OVC100
       
KICR 190953Z AUTO 34003KT 10SM CLR M20/M22 A3038 RMK AO2 UPE41 SLP337 P0000 T12001222
KYKN 190956Z AUTO 33020G24KT 9SM -SN FEW046 OVC085 M16/M19 A3038 RMK AO2 SLP331 P0000 T11561189 FZRANO